Time;durP1;ratioP1;P1;durP2;ratioP2;P2;SDS_P1;SDS_P2;PMS_P1;PMS_P2;Temp;Humidity;BMP_temperature;BMP_pressure;BME280_temperature;BME280_humidity;BME280_pressure;Samples;Min_cycle;Max_cycle;Signal;HPM_P1;HPM_P2
2022/01/26 00:06:10;;;;;;;;;;;;;;;4.92;100.00;100546.84;5097522;28;19946;-77
2022/01/26 00:08:38;;;;;;;;;;;;;;;4.93;100.00;100560.34;5097529;28;20369;-77
2022/01/26 00:11:05;;;;;;;;;;;;;;;5.26;100.00;100562.88;5096420;28;19924;-77
2022/01/26 00:13:32;;;;;;;;;;;;;;;5.22;100.00;100567.50;5097271;28;19928;-77
2022/01/26 00:16:03;;;;;;;;;;;;;;;5.37;100.00;100586.16;5097345;28;19928;-77
2022/01/26 00:18:34;;;;;;;;;;;;;;;5.38;100.00;100588.59;5095827;28;19928;-77
2022/01/26 00:21:09;;;;;;;;;;;;;;;5.53;100.00;100582.28;5097270;28;19928;-77
2022/01/26 00:24:08;;;;;;;;;;;;;;;5.67;100.00;100583.81;5097108;28;20421;-77
2022/01/26 00:27:04;;;;;;;;;;;;;;;5.67;100.00;100581.88;5082862;28;20077;-77
2022/01/26 00:29:30;;;;;;;;;;;;;;;5.82;100.00;100586.66;5075563;28;20587;-77
2022/01/26 00:40:23;;;;;;;;;;;;;;;5.17;100.00;100582.44;5076651;28;20035;-77
2022/01/26 00:42:54;;;;;;;;;;;;;;;5.20;100.00;100589.22;5076547;28;19924;-77
2022/01/26 00:45:25;;;;;;;;;;;;;;;5.41;100.00;100582.34;5076431;28;19924;-77
2022/01/26 00:47:52;;;;;;;;;;;;;;;5.39;100.00;100592.97;5075093;28;20042;-77
2022/01/26 00:50:19;;;;;;;;;;;;;;;5.39;100.00;100595.72;5076391;28;19932;-77
2022/01/26 00:52:53;;;;;;;;;;;;;;;5.53;100.00;100589.78;5076183;28;20423;-77
2022/01/26 00:55:20;;;;;;;;;;;;;;;5.66;100.00;100594.13;5075176;28;19928;-77
2022/01/26 00:57:48;;;;;;;;;;;;;;;5.53;100.00;100589.78;5075065;28;19925;-77
2022/01/26 01:00:16;;;;;;;;;;;;;;;5.49;100.00;100595.25;5058204;28;20320;-77
2022/01/26 01:02:43;;;;;;;;;;;;;;;5.26;100.00;100596.94;5074310;28;20386;-77
2022/01/26 01:05:18;;;;;;;;;;;;;;;5.30;100.00;100591.53;5074408;28;20371;-77
2022/01/26 01:07:47;;;;;;;;;;;;;;;5.24;100.00;100574.31;5074004;28;20082;-77
2022/01/26 01:10:18;;;;;;;;;;;;;;;5.10;100.00;100571.13;5075740;28;19970;-77
2022/01/26 01:12:45;;;;;;;;;;;;;;;5.10;100.00;100586.97;5074227;28;19928;-77
2022/01/26 01:15:13;;;;;;;;;;;;;;;4.98;100.00;100595.31;5075749;28;20013;-77
2022/01/26 01:17:50;;;;;;;;;;;;;;;5.03;100.00;100609.69;5074303;28;20397;-77
2022/01/26 01:26:04;;;;;;;;;;;;;;;5.17;100.00;100618.44;5080481;28;19924;-77
2022/01/26 01:31:01;;;;;;;;;;;;;;;5.47;100.00;100616.16;5095654;28;19931;-77
2022/01/26 01:33:32;;;;;;;;;;;;;;;5.34;100.00;100603.50;5095811;28;19924;-77
2022/01/26 01:36:01;;;;;;;;;;;;;;;5.45;100.00;100596.31;5095675;28;20073;-77
2022/01/26 01:38:29;;;;;;;;;;;;;;;5.59;100.00;100599.47;5095685;28;19985;-77
2022/01/26 01:40:57;;;;;;;;;;;;;;;5.65;100.00;100583.38;5095501;28;19985;-77
2022/01/26 01:43:25;;;;;;;;;;;;;;;5.58;100.00;100587.59;5094458;28;19928;-77
2022/01/26 01:45:53;;;;;;;;;;;;;;;5.44;100.00;100569.72;5094072;28;19931;-77
2022/01/26 01:48:23;;;;;;;;;;;;;;;5.50;100.00;100571.91;5077663;28;19931;-77
2022/01/26 01:50:52;;;;;;;;;;;;;;;5.63;100.00;100594.03;5095303;28;19924;-77
2022/01/26 01:53:20;;;;;;;;;;;;;;;5.22;100.00;100590.50;5094515;28;19924;-77
2022/01/26 01:55:49;;;;;;;;;;;;;;;5.44;100.00;100598.25;5094043;28;19924;-77
2022/01/26 01:58:17;;;;;;;;;;;;;;;5.35;100.00;100583.75;5095250;28;19960;-77
2022/01/26 02:00:45;;;;;;;;;;;;;;;5.59;100.00;100582.81;5095005;28;19932;-77
2022/01/26 02:03:12;;;;;;;;;;;;;;;5.69;100.00;100579.56;5094115;28;20280;-77
2022/01/26 02:05:39;;;;;;;;;;;;;;;5.90;100.00;100576.56;5076954;28;19924;-77
2022/01/26 02:08:06;;;;;;;;;;;;;;;6.04;100.00;100566.66;5095197;28;19943;-77
2022/01/26 02:10:34;;;;;;;;;;;;;;;5.92;100.00;100574.25;5095062;28;19924;-77
2022/01/26 02:13:05;;;;;;;;;;;;;;;5.99;100.00;100579.97;5093824;28;20012;-77
2022/01/26 02:15:43;;;;;;;;;;;;;;;5.95;100.00;100573.53;5093597;28;19997;-77
2022/01/26 02:21:00;;;;;;;;;;;;;;;5.59;100.00;100589.19;5076181;28;20018;-77
2022/01/26 02:56:30;;;;;;;;;;;;;;;5.79;100.00;100562.38;5074043;28;19924;-77
2022/01/26 03:04:17;;;;;;;;;;;;;;;5.67;100.00;100573.53;5073712;28;19935;-77
2022/01/26 03:06:56;;;;;;;;;;;;;;;5.64;100.00;100574.25;5073815;28;19924;-77
2022/01/26 03:09:29;;;;;;;;;;;;;;;5.51;100.00;100565.19;5073888;28;19925;-76
2022/01/26 03:11:59;;;;;;;;;;;;;;;5.58;100.00;100565.41;5073953;28;20257;-77
2022/01/26 03:17:13;;;;;;;;;;;;;;;5.51;100.00;100573.50;5073836;28;19925;-77
2022/01/26 03:19:48;;;;;;;;;;;;;;;5.71;100.00;100570.88;5072567;28;20070;-77
2022/01/26 03:33:25;;;;;;;;;;;;;;;6.41;100.00;100558.84;5093712;28;19931;-77
2022/01/26 03:35:58;;;;;;;;;;;;;;;6.55;100.00;100561.97;5092713;28;19924;-77
2022/01/26 03:38:41;;;;;;;;;;;;;;;6.54;100.00;100565.91;5092713;28;20260;-77
2022/01/26 03:43:47;;;;;;;;;;;;;;;6.82;100.00;100569.34;5093767;28;19928;-77
2022/01/26 03:46:14;;;;;;;;;;;;;;;6.71;100.00;100563.53;5092298;28;19924;-77
2022/01/26 03:48:41;;;;;;;;;;;;;;;6.82;100.00;100558.22;5126842;28;19932;-77
2022/01/26 03:51:08;;;;;;;;;;;;;;;7.03;100.00;100569.81;5092497;28;19931;-77
2022/01/26 03:53:36;;;;;;;;;;;;;;;6.73;100.00;100554.84;5092458;28;20421;-77
2022/01/26 03:56:03;;;;;;;;;;;;;;;6.65;100.00;100553.09;5058722;28;20257;-77
2022/01/26 03:58:31;;;;;;;;;;;;;;;6.57;100.00;100540.19;5093724;28;19925;-77
2022/01/26 04:00:58;;;;;;;;;;;;;;;6.41;100.00;100528.28;5093506;28;20452;-77
2022/01/26 04:03:25;;;;;;;;;;;;;;;6.54;100.00;100527.03;5093567;28;20391;-77
2022/01/26 04:05:52;;;;;;;;;;;;;;;6.64;100.00;100518.94;5093486;28;19924;-77
2022/01/26 04:08:25;;;;;;;;;;;;;;;6.51;100.00;100524.97;5092426;28;20427;-77
2022/01/26 04:11:07;;;;;;;;;;;;;;;6.38;100.00;100517.91;5093407;28;20389;-77
2022/01/26 04:13:37;;;;;;;;;;;;;;;6.28;100.00;100521.25;5093627;28;19928;-77
2022/01/26 04:16:04;;;;;;;;;;;;;;;6.43;100.00;100523.19;5093308;28;19924;-77
2022/01/26 04:18:37;;;;;;;;;;;;;;;6.57;100.00;100513.22;5092188;28;20014;-77
2022/01/26 04:23:56;;;;;;;;;;;;;;;6.65;100.00;100494.75;5093531;28;19928;-77
2022/01/26 04:26:31;;;;;;;;;;;;;;;6.48;100.00;100492.38;5080792;28;20354;-77
2022/01/26 04:29:04;;;;;;;;;;;;;;;6.49;100.00;100493.97;5073145;28;20437;-77
2022/01/26 04:31:32;;;;;;;;;;;;;;;6.69;100.00;100498.41;5072034;28;20617;-77
2022/01/26 04:33:59;;;;;;;;;;;;;;;6.89;100.00;100502.81;5073278;28;19932;-77
2022/01/26 04:36:43;;;;;;;;;;;;;;;7.05;100.00;100506.34;5072036;28;20364;-77
2022/01/26 04:39:15;;;;;;;;;;;;;;;7.07;100.00;100499.22;5071949;28;19924;-77
2022/01/26 04:41:49;;;;;;;;;;;;;;;6.90;100.00;100504.44;5073117;28;19925;-77
2022/01/26 04:44:31;;;;;;;;;;;;;;;7.03;100.00;100505.88;5076661;28;19925;-77
2022/01/26 04:46:58;;;;;;;;;;;;;;;6.96;100.00;100498.22;5076654;28;19955;-77
2022/01/26 04:49:25;;;;;;;;;;;;;;;6.77;100.00;100486.28;5076726;28;19924;-77
2022/01/26 04:51:52;;;;;;;;;;;;;;;6.72;100.00;100494.91;5075445;28;19947;-77
2022/01/26 04:54:19;;;;;;;;;;;;;;;6.44;100.00;100480.38;5058519;28;20352;-76
2022/01/26 04:56:46;;;;;;;;;;;;;;;6.46;100.00;100478.84;5075331;28;19931;-77
2022/01/26 04:59:14;;;;;;;;;;;;;;;6.53;100.00;100483.75;5076298;28;20371;-77
2022/01/26 05:01:41;;;;;;;;;;;;;;;6.36;100.00;100478.63;5076399;28;19924;-77
2022/01/26 05:04:08;;;;;;;;;;;;;;;6.24;100.00;100481.50;5076345;28;19931;-77
2022/01/26 05:06:35;;;;;;;;;;;;;;;6.24;100.00;100473.19;5076366;28;19924;-77
2022/01/26 05:09:03;;;;;;;;;;;;;;;6.40;100.00;100483.09;5074902;28;19925;-77
2022/01/26 05:11:40;;;;;;;;;;;;;;;6.24;100.00;100487.06;5075188;28;19925;-77
2022/01/26 05:14:07;;;;;;;;;;;;;;;6.53;100.00;100494.84;5075005;28;20019;-76
2022/01/26 05:16:34;;;;;;;;;;;;;;;6.17;100.00;100503.53;5076144;28;19924;-77
2022/01/26 05:19:02;;;;;;;;;;;;;;;6.24;100.00;100500.94;5075740;28;19930;-77
2022/01/26 05:21:29;;;;;;;;;;;;;;;6.40;100.00;100496.97;5076389;28;20024;-77
2022/01/26 05:23:59;;;;;;;;;;;;;;;6.21;100.00;100504.44;5075483;28;20406;-77
2022/01/26 05:26:26;;;;;;;;;;;;;;;6.46;100.00;100494.69;5079596;28;20169;-77
2022/01/26 05:28:54;;;;;;;;;;;;;;;6.70;100.00;100495.28;5095028;28;19924;-77
2022/01/26 05:31:21;;;;;;;;;;;;;;;6.78;100.00;100499.81;5095066;28;19924;-77
2022/01/26 05:33:49;;;;;;;;;;;;;;;6.62;100.00;100495.47;5096017;28;19927;-77
2022/01/26 05:36:17;;;;;;;;;;;;;;;6.82;100.00;100497.09;5094915;28;19924;-77
2022/01/26 05:38:44;;;;;;;;;;;;;;;6.94;100.00;100495.00;5089858;28;20022;-77
2022/01/26 05:41:12;;;;;;;;;;;;;;;6.99;100.00;100494.72;5075703;28;19924;-77
2022/01/26 05:43:40;;;;;;;;;;;;;;;6.73;100.00;100496.50;5074504;28;20041;-77
2022/01/26 05:46:16;;;;;;;;;;;;;;;6.94;100.00;100499.75;5075295;28;19928;-77
2022/01/26 05:48:46;;;;;;;;;;;;;;;6.91;100.00;100494.91;5075182;28;19928;-77
2022/01/26 05:51:15;;;;;;;;;;;;;;;7.00;100.00;100495.50;5057238;28;20008;-77
2022/01/26 05:53:42;;;;;;;;;;;;;;;7.11;100.00;100477.06;5074659;28;19924;-77
2022/01/26 05:56:09;;;;;;;;;;;;;;;6.88;100.00;100474.22;5074658;28;19928;-77
2022/01/26 05:58:36;;;;;;;;;;;;;;;6.86;100.00;100475.78;5073385;28;20329;-77
2022/01/26 06:01:04;;;;;;;;;;;;;;;6.75;100.00;100474.72;5074654;28;19925;-77
2022/01/26 06:03:31;;;;;;;;;;;;;;;6.59;100.00;100477.56;5075085;28;19924;-76
2022/01/26 06:05:58;;;;;;;;;;;;;;;7.05;100.00;100486.88;5074948;28;19962;-77
2022/01/26 06:08:26;;;;;;;;;;;;;;;6.69;100.00;100496.44;5075055;28;19931;-77
2022/01/26 06:10:55;;;;;;;;;;;;;;;6.93;100.00;100495.34;5057096;28;20303;-77
2022/01/26 06:13:22;;;;;;;;;;;;;;;7.12;100.00;100495.34;5074778;28;19924;-77
2022/01/26 06:15:50;;;;;;;;;;;;;;;7.15;100.00;100495.44;5084480;28;19925;-76
2022/01/26 06:18:17;;;;;;;;;;;;;;;7.04;100.00;100501.97;5094841;28;19967;-76
2022/01/26 06:20:44;;;;;;;;;;;;;;;7.05;100.00;100500.78;5094812;28;19924;-77
2022/01/26 06:23:11;;;;;;;;;;;;;;;7.10;100.00;100492.16;5094938;28;19928;-77
2022/01/26 06:25:38;;;;;;;;;;;;;;;7.03;100.00;100494.75;5089633;28;19933;-77
2022/01/26 06:28:09;;;;;;;;;;;;;;;7.25;100.00;100491.25;5069668;28;19924;-77
2022/01/26 06:30:36;;;;;;;;;;;;;;;7.20;100.00;100486.00;5090291;28;19931;-77
2022/01/26 06:33:04;;;;;;;;;;;;;;;7.29;100.00;100481.00;5073347;28;20275;-77
2022/01/26 06:35:34;;;;;;;;;;;;;;;7.11;100.00;100471.50;5074135;28;19932;-77
2022/01/26 06:38:01;;;;;;;;;;;;;;;7.09;100.00;100484.97;5086256;28;19928;-77
2022/01/26 06:40:29;;;;;;;;;;;;;;;6.97;100.00;100493.44;5094462;28;19930;-77
2022/01/26 06:43:00;;;;;;;;;;;;;;;6.91;100.00;100484.59;5093448;28;19924;-77
2022/01/26 06:45:31;;;;;;;;;;;;;;;6.96;100.00;100476.00;5093244;28;19924;-77
2022/01/26 06:48:28;;;;;;;;;;;;;;;7.11;100.00;100471.50;5094450;28;19930;-77
2022/01/26 06:50:55;;;;;;;;;;;;;;;7.25;100.00;100482.94;5094280;28;19924;-77
2022/01/26 06:53:23;;;;;;;;;;;;;;;7.01;100.00;100472.13;5094504;28;20007;-77
2022/01/26 06:55:50;;;;;;;;;;;;;;;7.01;100.00;100464.56;5094166;28;19924;-77
2022/01/26 06:58:17;;;;;;;;;;;;;;;7.25;100.00;100467.03;5094386;28;19924;-77
2022/01/26 07:00:44;;;;;;;;;;;;;;;7.19;100.00;100459.38;5093051;28;19931;-77
2022/01/26 07:03:11;;;;;;;;;;;;;;;7.26;100.00;100456.72;5094185;28;20426;-77
2022/01/26 07:05:38;;;;;;;;;;;;;;;7.31;100.00;100465.56;5093426;28;19928;-77
2022/01/26 07:08:05;;;;;;;;;;;;;;;7.26;100.00;100473.41;5094091;28;19945;-77
2022/01/26 07:10:35;;;;;;;;;;;;;;;6.88;100.00;100478.97;5093960;28;19924;-77
2022/01/26 07:13:02;;;;;;;;;;;;;;;6.87;100.00;100478.19;5094006;28;19930;-77
2022/01/26 07:23:35;;;;;;;;;;;;;;;6.33;100.00;100493.22;5052484;28;19925;-77
2022/01/26 07:26:03;;;;;;;;;;;;;;;6.09;100.00;100491.44;5053544;28;19932;-76
2022/01/26 07:28:35;;;;;;;;;;;;;;;5.83;100.00;100482.84;5053512;28;19924;-76
2022/01/26 07:31:05;;;;;;;;;;;;;;;5.83;100.00;100460.66;5035953;28;19925;-76
2022/01/26 07:33:33;;;;;;;;;;;;;;;5.88;100.00;100462.41;5053539;28;19949;-76
2022/01/26 07:36:00;;;;;;;;;;;;;;;5.63;100.00;100466.47;5060966;28;20497;-76
2022/01/26 07:38:27;;;;;;;;;;;;;;;5.54;100.00;100467.44;5074910;28;19973;-76
2022/01/26 07:40:55;;;;;;;;;;;;;;;5.51;100.00;100470.91;5072303;28;19956;-76
2022/01/26 07:43:24;;;;;;;;;;;;;;;5.63;100.00;100483.09;5077573;28;19930;-76
2022/01/26 07:45:51;;;;;;;;;;;;;;;5.75;100.00;100496.88;5093533;28;19924;-76
2022/01/26 07:48:19;;;;;;;;;;;;;;;5.75;100.00;100507.97;5093345;28;19928;-77
2022/01/26 07:50:46;;;;;;;;;;;;;;;5.82;100.00;100508.19;5092453;28;19924;-78
2022/01/26 07:53:16;;;;;;;;;;;;;;;5.92;100.00;100513.22;5093656;28;19924;-81
2022/01/26 07:55:43;;;;;;;;;;;;;;;5.87;100.00;100519.03;5093589;28;19930;-78
2022/01/26 07:58:11;;;;;;;;;;;;;;;5.89;100.00;100520.28;5093556;28;20049;-78
2022/01/26 08:00:39;;;;;;;;;;;;;;;5.71;100.00;100512.63;5090973;28;20367;-77
2022/01/26 08:03:06;;;;;;;;;;;;;;;5.78;100.00;100527.50;5073156;28;20410;-77
2022/01/26 08:05:34;;;;;;;;;;;;;;;5.80;100.00;100521.59;5073273;28;20443;-77
2022/01/26 08:08:01;;;;;;;;;;;;;;;5.86;100.00;100520.19;5073067;28;20018;-77
2022/01/26 08:10:28;;;;;;;;;;;;;;;5.89;100.00;100513.94;5073314;28;19924;-78
2022/01/26 08:12:56;;;;;;;;;;;;;;;5.79;100.00;100497.78;5073339;28;20380;-78
2022/01/26 08:15:24;;;;;;;;;;;;;;;5.68;100.00;100499.47;5073175;28;19956;-77
2022/01/26 08:17:52;;;;;;;;;;;;;;;5.59;100.00;100508.78;5074726;28;20011;-77
2022/01/26 08:20:21;;;;;;;;;;;;;;;5.57;100.00;100497.22;5077020;28;20422;-77
2022/01/26 08:22:50;;;;;;;;;;;;;;;5.70;100.00;100499.91;5076890;28;20416;-77
2022/01/26 08:25:18;;;;;;;;;;;;;;;5.58;100.00;100503.59;5076910;28;19931;-78
2022/01/26 08:27:52;;;;;;;;;;;;;;;5.60;100.00;100507.59;5075504;28;19991;-77
2022/01/26 08:30:20;;;;;;;;;;;;;;;5.56;100.00;100512.25;5076854;28;20315;-77
2022/01/26 08:32:47;;;;;;;;;;;;;;;5.80;100.00;100505.72;5076534;28;20414;-77
2022/01/26 08:35:15;;;;;;;;;;;;;;;5.85;100.00;100502.72;5076871;28;19932;-77
2022/01/26 08:37:42;;;;;;;;;;;;;;;5.86;100.00;100509.09;5079756;28;20398;-77
2022/01/26 08:40:09;;;;;;;;;;;;;;;5.89;100.00;100508.38;5077815;28;20035;-77
2022/01/26 08:42:37;;;;;;;;;;;;;;;5.78;100.00;100501.72;5095197;28;20390;-77
2022/01/26 08:45:05;;;;;;;;;;;;;;;5.94;100.00;100505.34;5088481;28;20402;-77
2022/01/26 08:47:32;;;;;;;;;;;;;;;5.92;100.00;100504.88;5076190;28;19946;-77
2022/01/26 08:49:59;;;;;;;;;;;;;;;6.06;100.00;100502.47;5076292;28;19925;-77
2022/01/26 08:52:26;;;;;;;;;;;;;;;5.98;100.00;100490.41;5075119;28;20346;-77
2022/01/26 08:54:54;;;;;;;;;;;;;;;5.95;100.00;100491.13;5075534;28;19924;-77
2022/01/26 08:57:21;;;;;;;;;;;;;;;6.06;100.00;100491.38;5069634;28;19931;-77
2022/01/26 08:59:48;;;;;;;;;;;;;;;6.14;100.00;100493.13;5096305;28;19931;-77
2022/01/26 09:02:15;;;;;;;;;;;;;;;6.23;100.00;100491.78;5086172;28;19925;-77
2022/01/26 09:04:42;;;;;;;;;;;;;;;6.34;100.00;100498.41;5077846;28;20014;-77
2022/01/26 09:07:14;;;;;;;;;;;;;;;6.30;100.00;100496.72;5078820;28;20010;-77
2022/01/26 09:09:44;;;;;;;;;;;;;;;6.44;100.00;100492.28;5082914;28;20015;-76
2022/01/26 09:12:18;;;;;;;;;;;;;;;6.61;100.00;100496.63;5076726;28;20287;-76
2022/01/26 09:14:46;;;;;;;;;;;;;;;6.79;100.00;100511.72;5072190;28;20001;-76
2022/01/26 09:17:14;;;;;;;;;;;;;;;6.90;100.00;100501.66;5079361;28;19985;-76
2022/01/26 09:19:43;;;;;;;;;;;;;;;6.79;100.00;100515.31;5079816;28;19924;-76
2022/01/26 09:22:11;;;;;;;;;;;;;;;6.91;100.00;100506.84;5074534;28;19925;-78
2022/01/26 09:24:39;;;;;;;;;;;;;;;6.93;100.00;100496.19;5071420;28;19924;-76
2022/01/26 09:27:07;;;;;;;;;;;;;;;6.78;100.00;100496.22;5064437;28;19986;-76
2022/01/26 09:29:34;;;;;;;;;;;;;;;6.84;100.00;100489.22;5075951;28;20006;-76
2022/01/26 09:32:03;;;;;;;;;;;;;;;6.88;100.00;100484.53;5075506;28;19967;-76
2022/01/26 09:34:30;;;;;;;;;;;;;;;6.84;100.00;100483.66;5058905;28;19925;-75
2022/01/26 09:36:57;;;;;;;;;;;;;;;6.84;100.00;100494.78;5073286;28;20039;-75
2022/01/26 09:39:24;;;;;;;;;;;;;;;7.05;100.00;100489.66;5078343;28;20370;-76
2022/01/26 09:41:52;;;;;;;;;;;;;;;6.95;100.00;100490.25;5069635;28;19963;-76
2022/01/26 09:44:19;;;;;;;;;;;;;;;7.16;100.00;100487.91;5094422;28;19928;-75
2022/01/26 09:46:47;;;;;;;;;;;;;;;7.15;100.00;100483.50;5092842;28;19924;-75
2022/01/26 09:49:18;;;;;;;;;;;;;;;7.15;100.00;100472.38;5075356;28;20368;-75
2022/01/26 09:51:48;;;;;;;;;;;;;;;6.88;100.00;100474.22;5093903;28;19953;-75
2022/01/26 09:54:17;;;;;;;;;;;;;;;7.11;100.00;100483.44;5093714;28;20015;-75
2022/01/26 09:56:46;;;;;;;;;;;;;;;6.96;100.00;100473.22;5093683;28;19924;-75
2022/01/26 09:59:14;;;;;;;;;;;;;;;7.09;100.00;100476.63;5093888;28;19924;-75
2022/01/26 10:01:43;;;;;;;;;;;;;;;7.14;100.00;100473.56;5094794;28;19924;-75
2022/01/26 10:04:20;;;;;;;;;;;;;;;7.16;100.00;100468.44;5093361;28;19924;-75
2022/01/26 10:07:00;;;;;;;;;;;;;;;7.38;100.00;100475.22;5094450;28;20391;-75
2022/01/26 10:17:37;;;;;;;;;;;;;;;8.15;100.00;100463.47;5093963;28;19928;-75
2022/01/26 10:20:05;;;;;;;;;;;;;;;7.78;100.00;100462.47;5094498;28;20355;-75
2022/01/26 10:22:34;;;;;;;;;;;;;;;7.76;100.00;100464.81;5093144;28;20359;-75
2022/01/26 10:25:10;;;;;;;;;;;;;;;8.06;100.00;100474.06;5076298;28;20444;-75
2022/01/26 10:27:57;;;;;;;;;;;;;;;8.07;100.00;100464.53;5092160;28;20363;-75
2022/01/26 10:30:25;;;;;;;;;;;;;;;8.10;100.00;100463.78;5094091;28;19924;-75
2022/01/26 10:32:52;;;;;;;;;;;;;;;8.22;100.00;100463.63;5093876;28;19924;-75
2022/01/26 10:35:19;;;;;;;;;;;;;;;8.03;100.00;100458.09;5092734;28;19928;-75
2022/01/26 10:37:52;;;;;;;;;;;;;;;7.96;100.00;100455.22;5092989;28;19935;-76
2022/01/26 10:40:23;;;;;;;;;;;;;;;7.93;100.00;100449.56;5093116;28;19947;-75
2022/01/26 10:42:57;;;;;;;;;;;;;;;7.82;100.00;100443.84;5093509;28;20379;-75
2022/01/26 10:45:52;;;;;;;;;;;;;;;7.53;100.00;100436.16;5092700;28;19931;-75
2022/01/26 10:48:27;;;;;;;;;;;;;;;7.59;100.00;100439.47;5093458;28;19924;-75
2022/01/26 10:51:21;;;;;;;;;;;;;;;7.67;100.00;100427.25;5093784;28;19924;-75
2022/01/26 10:53:49;;;;;;;;;;;;;;;7.58;100.00;100427.53;5093610;28;20429;-75
2022/01/26 10:56:19;;;;;;;;;;;;;;;7.69;100.00;100434.09;5093332;28;19924;-75
2022/01/26 10:58:46;;;;;;;;;;;;;;;7.73;100.00;100420.22;5093448;28;20007;-76
2022/01/26 11:01:13;;;;;;;;;;;;;;;8.22;100.00;100423.78;5093765;28;20005;-75
2022/01/26 11:03:40;;;;;;;;;;;;;;;8.15;100.00;100421.69;5093497;28;19924;-75
2022/01/26 11:06:09;;;;;;;;;;;;;;;7.99;100.00;100417.47;5092279;28;19974;-75
2022/01/26 11:08:38;;;;;;;;;;;;;;;7.87;100.00;100414.88;5092255;28;20014;-76
2022/01/26 11:11:05;;;;;;;;;;;;;;;7.85;100.00;100418.03;5093175;28;19924;-75
2022/01/26 11:13:36;;;;;;;;;;;;;;;8.04;100.00;100415.16;5093189;28;19952;-75
2022/01/26 11:16:11;;;;;;;;;;;;;;;7.98;100.00;100413.88;5093221;28;19924;-75
2022/01/26 11:18:46;;;;;;;;;;;;;;;8.09;100.00;100406.50;5075269;28;20295;-75
2022/01/26 11:21:24;;;;;;;;;;;;;;;8.23;100.00;100406.75;5075217;28;19924;-75
2022/01/26 11:24:03;;;;;;;;;;;;;;;8.09;100.00;100416.84;5092225;28;20314;-75
2022/01/26 11:26:30;;;;;;;;;;;;;;;8.25;100.00;100414.72;5091664;28;19978;-75
2022/01/26 11:28:57;;;;;;;;;;;;;;;8.31;100.00;100411.25;5092057;28;19924;-75
2022/01/26 11:31:26;;;;;;;;;;;;;;;8.32;100.00;100407.25;5093174;28;19931;-75
2022/01/26 11:34:16;;;;;;;;;;;;;;;8.50;100.00;100405.53;5092915;28;19946;-75
2022/01/26 11:36:43;;;;;;;;;;;;;;;8.24;100.00;100408.34;5092004;28;19993;-75
2022/01/26 11:42:13;;;;;;;;;;;;;;;8.47;100.00;100411.03;5093275;28;19924;-75
2022/01/26 11:42:26;;;;;;;;;;;;;;;8.73;100.00;100397.88;5093073;28;20042;-75
2022/01/26 11:45:10;;;;;;;;;;;;;;;8.79;100.00;100396.34;5093044;28;19932;-75
2022/01/26 11:47:41;;;;;;;;;;;;;;;8.72;100.00;100396.25;5092922;28;19993;-75
2022/01/26 11:50:14;;;;;;;;;;;;;;;9.06;100.00;100399.84;5093010;28;20445;-75
2022/01/26 11:52:45;;;;;;;;;;;;;;;8.56;100.00;100392.88;5095294;28;20367;-75
2022/01/26 11:55:27;;;;;;;;;;;;;;;9.23;100.00;100395.63;5095532;28;20402;-75
2022/01/26 11:58:04;;;;;;;;;;;;;;;8.82;100.00;100376.09;5097017;28;19927;-76
2022/01/26 12:01:10;;;;;;;;;;;;;;;8.76;100.00;100374.00;5078823;28;19953;-75
2022/01/26 12:03:44;;;;;;;;;;;;;;;8.82;100.00;100378.88;5095753;28;20303;-75
2022/01/26 12:06:19;;;;;;;;;;;;;;;9.32;100.00;100357.06;5096999;28;20418;-76
2022/01/26 12:08:47;;;;;;;;;;;;;;;9.33;100.00;100364.28;5096488;28;20263;-76
2022/01/26 12:11:15;;;;;;;;;;;;;;;9.15;100.00;100370.47;5096952;28;20267;-75
2022/01/26 12:13:43;;;;;;;;;;;;;;;9.64;100.00;100370.13;5095545;28;19924;-76
2022/01/26 12:16:17;;;;;;;;;;;;;;;9.10;100.00;100373.59;5096808;28;20537;-75
2022/01/26 12:18:57;;;;;;;;;;;;;;;9.18;100.00;100365.31;5096443;28;20361;-75
2022/01/26 12:43:45;;;;;;;;;;;;;;;9.11;100.00;100344.56;5096064;28;20299;-75
2022/01/26 12:46:17;;;;;;;;;;;;;;;9.33;100.00;100345.53;5095028;28;19982;-75
2022/01/26 12:48:49;;;;;;;;;;;;;;;9.34;100.00;100340.78;5094731;28;19978;-76
2022/01/26 12:51:17;;;;;;;;;;;;;;;9.12;100.00;100337.78;5096094;28;20406;-75
2022/01/26 12:53:50;;;;;;;;;;;;;;;9.18;100.00;100323.50;5095756;28;20313;-76
2022/01/26 12:56:17;;;;;;;;;;;;;;;9.34;100.00;100326.81;5095772;28;19924;-76
2022/01/26 12:58:44;;;;;;;;;;;;;;;9.34;100.00;100313.69;5094493;28;19931;-75
2022/01/26 13:01:15;;;;;;;;;;;;;;;9.36;100.00;100314.06;5095813;28;19924;-76
2022/01/26 13:03:43;;;;;;;;;;;;;;;9.30;100.00;100303.69;5094805;28;20015;-75
2022/01/26 13:06:13;;;;;;;;;;;;;;;9.23;100.00;100300.81;5095679;28;19928;-76
2022/01/26 13:08:40;;;;;;;;;;;;;;;9.20;100.00;100296.81;5095386;28;19928;-75
2022/01/26 13:11:10;;;;;;;;;;;;;;;9.24;100.00;100294.84;5094507;28;20276;-75
2022/01/26 13:13:37;;;;;;;;;;;;;;;9.41;100.00;100285.84;5095370;28;19931;-76
2022/01/26 13:16:18;;;;;;;;;;;;;;;9.24;100.00;100278.13;5095436;28;19924;-75
2022/01/26 13:24:17;;;;;;;;;;;;;;;9.37;100.00;100273.03;5094086;28;20326;-75
2022/01/26 13:29:54;;;;;;;;;;;;;;;8.92;100.00;100266.69;5095078;28;19924;-76
2022/01/26 13:32:50;;;;;;;;;;;;;;;8.97;100.00;100266.34;5095237;28;19954;-76
2022/01/26 13:35:23;;;;;;;;;;;;;;;9.22;100.00;100268.53;5094903;28;19963;-76
2022/01/26 13:38:10;;;;;;;;;;;;;;;9.19;100.00;100256.19;5093723;28;19954;-76
2022/01/26 13:51:11;;;;;;;;;;;;;;;9.32;100.00;100237.13;5094641;28;19924;-76
2022/01/26 13:53:54;;;;;;;;;;;;;;;9.54;100.00;100219.38;5094838;28;19924;-76
2022/01/26 14:01:41;;;;;;;;;;;;;;;9.51;100.00;100189.47;5093489;28;19962;-76
2022/01/26 14:04:08;;;;;;;;;;;;;;;9.75;100.00;100188.78;5094849;28;19927;-76
2022/01/26 14:06:35;;;;;;;;;;;;;;;9.72;100.00;100186.78;5094364;28;19924;-76
2022/01/26 14:09:03;;;;;;;;;;;;;;;9.87;100.00;100188.47;5094534;28;19924;-76
2022/01/26 14:11:30;;;;;;;;;;;;;;;9.52;100.00;100183.50;5094382;28;19935;-76
2022/01/26 14:13:59;;;;;;;;;;;;;;;9.41;100.00;100176.22;5094419;28;19931;-76
2022/01/26 14:16:28;;;;;;;;;;;;;;;9.48;100.00;100181.88;5094202;28;20371;-76
2022/01/26 14:22:07;;;;;;;;;;;;;;;9.11;100.00;100185.63;5093110;28;20019;-76
2022/01/26 14:24:49;;;;;;;;;;;;;;;9.05;100.00;100187.16;5094115;28;19928;-76
2022/01/26 14:27:17;;;;;;;;;;;;;;;9.10;100.00;100172.84;5092907;28;19924;-76
2022/01/26 14:32:30;;;;;;;;;;;;;;;9.45;100.00;100166.69;5094130;28;19924;-76
2022/01/26 15:35:18;;;;;;;;;;;;;;;8.84;100.00;100136.81;5091992;28;19930;-76
2022/01/26 16:07:54;;;;;;;;;;;;;;;8.80;100.00;100082.22;5092811;28;20018;-75
2022/01/26 16:16:29;;;;;;;;;;;;;;;8.77;100.00;100074.63;5092865;28;19924;-75
2022/01/26 16:21:20;;;;;;;;;;;;;;;8.75;100.00;100046.38;5072600;28;19964;-76
2022/01/26 17:02:20;;;;;;;;;;;;;;;8.54;100.00;100060.94;5096863;28;20269;-75
2022/01/26 18:32:58;;;;;;;;;;;;;;;7.13;100.00;99957.75;5032420;28;19975;-75
2022/01/26 18:49:13;;;;;;;;;;;;;;;7.06;100.00;99960.44;5053050;28;19952;-75
2022/01/26 18:51:45;;;;;;;;;;;;;;;7.13;100.00;99950.19;5053062;28;19924;-75
2022/01/26 18:54:12;;;;;;;;;;;;;;;7.22;100.00;99961.81;5036570;28;19968;-76
2022/01/26 18:56:41;;;;;;;;;;;;;;;7.02;100.00;99963.19;5069469;28;19972;-75
2022/01/26 18:59:09;;;;;;;;;;;;;;;7.02;100.00;99945.69;5090971;28;19931;-76
2022/01/26 19:01:36;;;;;;;;;;;;;;;7.08;100.00;99969.19;5075829;28;19970;-76
2022/01/26 19:04:28;;;;;;;;;;;;;;;7.11;100.00;99947.00;5085651;28;19982;-76
2022/01/26 19:06:57;;;;;;;;;;;;;;;7.19;100.00;99972.91;5074105;28;19924;-75
2022/01/26 19:09:27;;;;;;;;;;;;;;;7.10;100.00;99939.06;5067322;28;19929;-76
2022/01/26 19:11:55;;;;;;;;;;;;;;;7.17;100.00;99947.47;5054857;28;19949;-76
2022/01/26 19:14:26;;;;;;;;;;;;;;;7.12;100.00;99953.34;5072585;28;20001;-76
2022/01/26 19:17:01;;;;;;;;;;;;;;;7.23;100.00;99955.09;5088372;28;20273;-76
2022/01/26 19:19:42;;;;;;;;;;;;;;;7.20;100.00;99938.38;5052285;28;19925;-76
2022/01/26 19:23:11;;;;;;;;;;;;;;;7.11;100.00;99932.31;5069190;28;20510;-75
2022/01/26 19:25:10;;;;;;;;;;;;;;;7.11;100.00;99940.66;5062651;28;19935;-76